Glade Spring, VA (24340)

2:34 AM EST on December 03, 2016 (GMT -0500)
Friendship | | Change Station

Elev 2015 ft 36.73 °N, 81.74 °W | Updated 19 seconds ago

Overcast
Overcast
34.7 °F
Feels Like 35 °F
N
1.0
Wind Variable Wind from WSW
Gusts 2.0 mph

Today
High -- | Low -- °F
--% Chance of Precip.
Yesterday
High -- | Low -- °F
Precip. -- in
Pressure 30.27 in
Visibility 10.0 miles
Clouds Overcast 2000 ft
Windchill 35 °F
Dew Point 31 °F
Humidity 86%
Rainfall 0.00 in
Snow Depth Not available.
7:23 AM 5:10 PM
Waxing Crescent, 13% visible
METAR KVJI 030655Z AUTO 35003KT 10SM OVC020 03/M01 A3027 RMK AO2 T00261013
Pressure 30.27 in
Visibility 10.0 miles
Clouds Overcast 2000 ft
Windchill 35 °F
Dew Point 31 °F
Humidity 86%
Rainfall 0.00 in
Snow Depth Not available.
7:23 AM 5:10 PM
Waxing Crescent, 13% visible
METAR KVJI 030655Z AUTO 35003KT 10SM OVC020 03/M01 A3027 RMK AO2 T00261013

10-Day Weather Forecast

Almanac

Astronomy

Dec. 03, 2016 Rise Set
Actual Time
Civil Twilight
Nautical Twilight
Astronomical Twilight
Moon
Length of Visible Light
Length of Day
Tomorrow will be .
, % of the Moon is Illuminated

Today's Extremes

State Highs State Lows

Community

WunderPhotos

Upload Photos

1,955,432 photos uploaded!

WunderBlog® & News

Nearby

Air Quality

  Air Quality AQ Index Pollutant
Not available.

Snow Depth

Station Depth Elevation

Earthquake Activity

City Distance Mag. Time & Date
Minimum magnitude displayed is 2.5.

Coastal Water Temperatures

Place Temperature

Stations

Nearby Weather Stations

Station Location Temp. Windchill Dew Point Humidity Wind Precip. Elev Updated Type
                   

Watches & Warnings

There are currently no watches in effect.